sensor_id;sensor_type;location;lat;lon;timestamp;pressure;altitude;pressure_sealevel;temperature
84354;BMP280;74538;43.522;1.516;2024-03-08T00:01:53;98712.78;;;21.76
84354;BMP280;74538;43.522;1.516;2024-03-08T00:04:18;98724.31;;;21.77
84354;BMP280;74538;43.522;1.516;2024-03-08T00:06:44;98719.41;;;21.75
84354;BMP280;74538;43.522;1.516;2024-03-08T00:09:12;98725.31;;;21.74
84354;BMP280;74538;43.522;1.516;2024-03-08T00:11:37;98750.06;;;21.72
84354;BMP280;74538;43.522;1.516;2024-03-08T00:14:03;98741.00;;;21.70
84354;BMP280;74538;43.522;1.516;2024-03-08T00:16:32;98741.50;;;21.68
84354;BMP280;74538;43.522;1.516;2024-03-08T00:18:59;98729.25;;;21.67
84354;BMP280;74538;43.522;1.516;2024-03-08T00:21:24;98729.25;;;21.67
84354;BMP280;74538;43.522;1.516;2024-03-08T00:23:52;98735.16;;;21.66
84354;BMP280;74538;43.522;1.516;2024-03-08T00:26:20;98722.41;;;21.66
84354;BMP280;74538;43.522;1.516;2024-03-08T00:28:48;98708.94;;;21.66
84354;BMP280;74538;43.522;1.516;2024-03-08T00:31:14;98708.94;;;21.66
84354;BMP280;74538;43.522;1.516;2024-03-08T00:33:42;98707.47;;;21.65
84354;BMP280;74538;43.522;1.516;2024-03-08T00:36:08;98705.25;;;21.64
84354;BMP280;74538;43.522;1.516;2024-03-08T00:38:34;98694.94;;;21.62
84354;BMP280;74538;43.522;1.516;2024-03-08T00:41:00;98692.00;;;21.60
84354;BMP280;74538;43.522;1.516;2024-03-08T00:43:25;98687.13;;;21.59
84354;BMP280;74538;43.522;1.516;2024-03-08T00:45:51;98670.94;;;21.59
84354;BMP280;74538;43.522;1.516;2024-03-08T00:48:17;98673.63;;;21.59
84354;BMP280;74538;43.522;1.516;2024-03-08T00:50:42;98670.25;;;21.58
84354;BMP280;74538;43.522;1.516;2024-03-08T00:53:11;98668.03;;;21.57
84354;BMP280;74538;43.522;1.516;2024-03-08T00:55:37;98668.78;;;21.57
84354;BMP280;74538;43.522;1.516;2024-03-08T00:58:04;98672.19;;;21.58
84354;BMP280;74538;43.522;1.516;2024-03-08T01:00:29;98680.28;;;21.58
84354;BMP280;74538;43.522;1.516;2024-03-08T01:02:55;98676.84;;;21.57
84354;BMP280;74538;43.522;1.516;2024-03-08T01:05:21;98675.38;;;21.56
84354;BMP280;74538;43.522;1.516;2024-03-08T01:07:46;98684.66;;;21.55
84354;BMP280;74538;43.522;1.516;2024-03-08T01:10:12;98688.34;;;21.52
84354;BMP280;74538;43.522;1.516;2024-03-08T01:12:38;98677.59;;;21.52
84354;BMP280;74538;43.522;1.516;2024-03-08T01:15:05;98684.19;;;21.51
84354;BMP280;74538;43.522;1.516;2024-03-08T01:17:30;98683.97;;;21.49
84354;BMP280;74538;43.522;1.516;2024-03-08T01:19:56;98670.22;;;21.47
84354;BMP280;74538;43.522;1.516;2024-03-08T01:22:22;98674.66;;;21.50
84354;BMP280;74538;43.522;1.516;2024-03-08T01:24:48;98673.19;;;21.49
84354;BMP280;74538;43.522;1.516;2024-03-08T01:27:14;98660.19;;;21.47
84354;BMP280;74538;43.522;1.516;2024-03-08T01:29:40;98662.88;;;21.47
84354;BMP280;74538;43.522;1.516;2024-03-08T01:32:05;98652.63;;;21.46
84354;BMP280;74538;43.522;1.516;2024-03-08T01:34:31;98655.81;;;21.44
84354;BMP280;74538;43.522;1.516;2024-03-08T01:36:58;98642.81;;;21.43
84354;BMP280;74538;43.522;1.516;2024-03-08T01:39:25;98648.94;;;21.43
84354;BMP280;74538;43.522;1.516;2024-03-08T01:41:50;98657.53;;;21.42
84354;BMP280;74538;43.522;1.516;2024-03-08T01:44:16;98639.38;;;21.42
84354;BMP280;74538;43.522;1.516;2024-03-08T01:46:46;98642.81;;;21.43
84354;BMP280;74538;43.522;1.516;2024-03-08T01:49:13;98633.28;;;21.42
84354;BMP280;74538;43.522;1.516;2024-03-08T01:51:41;98629.59;;;21.39
84354;BMP280;74538;43.522;1.516;2024-03-08T01:54:08;98630.09;;;21.38
84354;BMP280;74538;43.522;1.516;2024-03-08T01:56:36;98621.78;;;21.36
84354;BMP280;74538;43.522;1.516;2024-03-08T01:59:03;98613.69;;;21.36
84354;BMP280;74538;43.522;1.516;2024-03-08T02:01:29;98617.63;;;21.35
84354;BMP280;74538;43.522;1.516;2024-03-08T02:03:55;98604.88;;;21.35
84354;BMP280;74538;43.522;1.516;2024-03-08T02:06:21;98595.31;;;21.34
84354;BMP280;74538;43.522;1.516;2024-03-08T02:08:47;98579.66;;;21.33
84354;BMP280;74538;43.522;1.516;2024-03-08T02:11:13;98574.03;;;21.31
84354;BMP280;74538;43.522;1.516;2024-03-08T02:13:39;98572.81;;;21.32
84354;BMP280;74538;43.522;1.516;2024-03-08T02:16:05;98567.41;;;21.32
84354;BMP280;74538;43.522;1.516;2024-03-08T02:18:33;98565.94;;;21.31
84354;BMP280;74538;43.522;1.516;2024-03-08T02:21:00;98561.81;;;21.30
84354;BMP280;74538;43.522;1.516;2024-03-08T02:23:28;98542.22;;;21.29
84354;BMP280;74538;43.522;1.516;2024-03-08T02:25:55;98542.94;;;21.30
84354;BMP280;74538;43.522;1.516;2024-03-08T02:28:22;98525.81;;;21.27
84354;BMP280;74538;43.522;1.516;2024-03-08T02:30:48;98533.91;;;21.27
84354;BMP280;74538;43.522;1.516;2024-03-08T02:33:15;98525.81;;;21.27
84354;BMP280;74538;43.522;1.516;2024-03-08T02:35:47;98527.78;;;21.27
84354;BMP280;74538;43.522;1.516;2024-03-08T02:38:14;98513.06;;;21.28
84354;BMP280;74538;43.522;1.516;2024-03-08T02:40:50;98520.91;;;21.26
84354;BMP280;74538;43.522;1.516;2024-03-08T02:43:17;98520.91;;;21.26
84354;BMP280;74538;43.522;1.516;2024-03-08T02:45:43;98515.28;;;21.24
84354;BMP280;74538;43.522;1.516;2024-03-08T02:48:09;98514.06;;;21.25
84354;BMP280;74538;43.522;1.516;2024-03-08T02:50:35;98509.91;;;21.24
84354;BMP280;74538;43.522;1.516;2024-03-08T02:53:01;98511.13;;;21.23
84354;BMP280;74538;43.522;1.516;2024-03-08T02:55:27;98494.22;;;21.22
84354;BMP280;74538;43.522;1.516;2024-03-08T02:57:53;98492.06;;;21.21
84354;BMP280;74538;43.522;1.516;2024-03-08T03:00:20;98504.28;;;21.22
84354;BMP280;74538;43.522;1.516;2024-03-08T03:02:46;98500.63;;;21.19
84354;BMP280;74538;43.522;1.516;2024-03-08T03:05:12;98502.59;;;21.18
84354;BMP280;74538;43.522;1.516;2024-03-08T03:07:39;98492.53;;;21.19
84354;BMP280;74538;43.522;1.516;2024-03-08T03:10:05;98495.22;;;21.19
84354;BMP280;74538;43.522;1.516;2024-03-08T03:12:32;98495.72;;;21.17
84354;BMP280;74538;43.522;1.516;2024-03-08T03:14:59;98501.59;;;21.16
84354;BMP280;74538;43.522;1.516;2024-03-08T03:17:25;98495.75;;;21.12
84354;BMP280;74538;43.522;1.516;2024-03-08T03:19:51;98495.03;;;21.11
84354;BMP280;74538;43.522;1.516;2024-03-08T03:22:17;98489.63;;;21.11
84354;BMP280;74538;43.522;1.516;2024-03-08T03:24:44;98489.63;;;21.11
84354;BMP280;74538;43.522;1.516;2024-03-08T03:27:12;98483.53;;;21.11
84354;BMP280;74538;43.522;1.516;2024-03-08T03:29:43;98486.69;;;21.09
84354;BMP280;74538;43.522;1.516;2024-03-08T03:32:13;98474.69;;;21.10
84354;BMP280;74538;43.522;1.516;2024-03-08T03:34:39;98470.53;;;21.09
84354;BMP280;74538;43.522;1.516;2024-03-08T03:37:05;98466.88;;;21.07
84354;BMP280;74538;43.522;1.516;2024-03-08T03:39:33;98454.63;;;21.06
84354;BMP280;74538;43.522;1.516;2024-03-08T03:42:00;98450.00;;;21.06
84354;BMP280;74538;43.522;1.516;2024-03-08T03:44:28;98433.84;;;21.06
84354;BMP280;74538;43.522;1.516;2024-03-08T03:46:54;98436.31;;;21.04
84354;BMP280;74538;43.522;1.516;2024-03-08T03:49:19;98436.31;;;21.04
84354;BMP280;74538;43.522;1.516;2024-03-08T03:51:46;98420.16;;;21.04
84354;BMP280;74538;43.522;1.516;2024-03-08T03:54:12;98426.75;;;21.03
84354;BMP280;74538;43.522;1.516;2024-03-08T03:56:38;98417.19;;;21.02
84354;BMP280;74538;43.522;1.516;2024-03-08T03:59:05;98415.22;;;21.03
84354;BMP280;74538;43.522;1.516;2024-03-08T04:01:32;98424.06;;;21.03
84354;BMP280;74538;43.522;1.516;2024-03-08T04:03:58;98429.19;;;21.01
84354;BMP280;74538;43.522;1.516;2024-03-08T04:06:24;98429.72;;;21.00
84354;BMP280;74538;43.522;1.516;2024-03-08T04:08:50;98443.66;;;20.98
84354;BMP280;74538;43.522;1.516;2024-03-08T04:11:15;98435.59;;;20.98
84354;BMP280;74538;43.522;1.516;2024-03-08T04:13:42;98438.78;;;20.97
84354;BMP280;74538;43.522;1.516;2024-03-08T04:16:08;98455.41;;;20.95
84354;BMP280;74538;43.522;1.516;2024-03-08T04:18:37;98457.16;;;20.93
84354;BMP280;74538;43.522;1.516;2024-03-08T04:21:04;98455.69;;;20.92
84354;BMP280;74538;43.522;1.516;2024-03-08T04:23:32;98449.56;;;20.91
84354;BMP280;74538;43.522;1.516;2024-03-08T04:26:02;98433.41;;;20.91
84354;BMP280;74538;43.522;1.516;2024-03-08T04:28:28;98449.31;;;20.89
84354;BMP280;74538;43.522;1.516;2024-03-08T04:30:54;98437.56;;;20.87
84354;BMP280;74538;43.522;1.516;2024-03-08T04:33:20;98424.59;;;20.85
84354;BMP280;74538;43.522;1.516;2024-03-08T04:35:47;98430.00;;;20.85
84354;BMP280;74538;43.522;1.516;2024-03-08T04:38:12;98439.31;;;20.84
84354;BMP280;74538;43.522;1.516;2024-03-08T04:40:38;98435.38;;;20.85
84354;BMP280;74538;43.522;1.516;2024-03-08T04:43:05;98429.28;;;20.85
84354;BMP280;74538;43.522;1.516;2024-03-08T04:45:30;98429.28;;;20.85
84354;BMP280;74538;43.522;1.516;2024-03-08T04:47:56;98421.22;;;20.85
84354;BMP280;74538;43.522;1.516;2024-03-08T04:50:22;98410.94;;;20.83
84354;BMP280;74538;43.522;1.516;2024-03-08T04:52:48;98407.50;;;20.83
84354;BMP280;74538;43.522;1.516;2024-03-08T04:55:14;98400.66;;;20.82
84354;BMP280;74538;43.522;1.516;2024-03-08T04:57:39;98397.22;;;20.81
84354;BMP280;74538;43.522;1.516;2024-03-08T05:00:05;98389.66;;;20.79
84354;BMP280;74538;43.522;1.516;2024-03-08T05:02:37;98384.75;;;20.78
84354;BMP280;74538;43.522;1.516;2024-03-08T05:05:05;98385.97;;;20.77
84354;BMP280;74538;43.522;1.516;2024-03-08T05:07:31;98380.59;;;20.77
84354;BMP280;74538;43.522;1.516;2024-03-08T05:09:58;98375.22;;;20.77
84354;BMP280;74538;43.522;1.516;2024-03-08T05:12:24;98376.47;;;20.76
84354;BMP280;74538;43.522;1.516;2024-03-08T05:14:50;98373.78;;;20.76
84354;BMP280;74538;43.522;1.516;2024-03-08T05:17:16;98368.41;;;20.76
84354;BMP280;74538;43.522;1.516;2024-03-08T05:19:44;98360.81;;;20.74
84354;BMP280;74538;43.522;1.516;2024-03-08T05:22:10;98348.59;;;20.73
84354;BMP280;74538;43.522;1.516;2024-03-08T05:24:36;98346.38;;;20.72
84354;BMP280;74538;43.522;1.516;2024-03-08T05:27:01;98341.69;;;20.72
84354;BMP280;74538;43.522;1.516;2024-03-08T05:29:29;98338.31;;;20.72
84354;BMP280;74538;43.522;1.516;2024-03-08T05:31:55;98341.00;;;20.72
84354;BMP280;74538;43.522;1.516;2024-03-08T05:34:22;98328.78;;;20.71
84354;BMP280;74538;43.522;1.516;2024-03-08T05:36:48;98325.84;;;20.69
84354;BMP280;74538;43.522;1.516;2024-03-08T05:39:16;98327.09;;;20.68
84354;BMP280;74538;43.522;1.516;2024-03-08T05:41:43;98333.91;;;20.69
84354;BMP280;74538;43.522;1.516;2024-03-08T05:44:09;98340.53;;;20.68
84354;BMP280;74538;43.522;1.516;2024-03-08T05:46:36;98338.34;;;20.66
84354;BMP280;74538;43.522;1.516;2024-03-08T05:49:06;98344.47;;;20.67
84354;BMP280;74538;43.522;1.516;2024-03-08T05:51:36;98368.66;;;20.67
84354;BMP280;74538;43.522;1.516;2024-03-08T05:54:05;98365.97;;;20.67
84354;BMP280;74538;43.522;1.516;2024-03-08T05:56:32;98369.91;;;20.66
84354;BMP280;74538;43.522;1.516;2024-03-08T05:58:57;98384.56;;;20.65
84354;BMP280;74538;43.522;1.516;2024-03-08T06:01:24;98369.66;;;20.64
84354;BMP280;74538;43.522;1.516;2024-03-08T06:03:50;98380.91;;;20.62
84354;BMP280;74538;43.522;1.516;2024-03-08T06:06:15;98380.91;;;20.62
84354;BMP280;74538;43.522;1.516;2024-03-08T06:08:43;98390.94;;;20.62
84354;BMP280;74538;43.522;1.516;2024-03-08T06:11:09;98382.13;;;20.61
84354;BMP280;74538;43.522;1.516;2024-03-08T06:13:35;98380.66;;;20.60
84354;BMP280;74538;43.522;1.516;2024-03-08T06:16:01;98387.28;;;20.59
84354;BMP280;74538;43.522;1.516;2024-03-08T06:18:33;98385.34;;;20.60
84354;BMP280;74538;43.522;1.516;2024-03-08T06:20:59;98369.69;;;20.58
84354;BMP280;74538;43.522;1.516;2024-03-08T06:23:26;98381.19;;;20.59
84354;BMP280;74538;43.522;1.516;2024-03-08T06:25:53;98378.50;;;20.59
84354;BMP280;74538;43.522;1.516;2024-03-08T06:28:18;98382.66;;;20.60
84354;BMP280;74538;43.522;1.516;2024-03-08T06:30:44;98396.59;;;20.58
84354;BMP280;74538;43.522;1.516;2024-03-08T06:33:09;98401.22;;;20.58
84354;BMP280;74538;43.522;1.516;2024-03-08T06:35:36;98385.06;;;20.58
84354;BMP280;74538;43.522;1.516;2024-03-08T06:38:04;98392.88;;;20.56
84354;BMP280;74538;43.522;1.516;2024-03-08T06:40:29;98394.16;;;20.55
84354;BMP280;74538;43.522;1.516;2024-03-08T06:42:55;98402.22;;;20.55
84354;BMP280;74538;43.522;1.516;2024-03-08T06:45:21;98402.22;;;20.55
84354;BMP280;74538;43.522;1.516;2024-03-08T06:47:48;98396.84;;;20.55
84354;BMP280;74538;43.522;1.516;2024-03-08T06:50:14;98407.59;;;20.55
84354;BMP280;74538;43.522;1.516;2024-03-08T06:52:41;98400.97;;;20.56
84354;BMP280;74538;43.522;1.516;2024-03-08T06:55:08;98427.88;;;20.56
84354;BMP280;74538;43.522;1.516;2024-03-08T06:57:40;98435.44;;;20.57
84354;BMP280;74538;43.522;1.516;2024-03-08T07:00:07;98430.81;;;20.58
84354;BMP280;74538;43.522;1.516;2024-03-08T07:02:35;98413.47;;;20.59
84354;BMP280;74538;43.522;1.516;2024-03-08T07:05:01;98452.09;;;20.61
84354;BMP280;74538;43.522;1.516;2024-03-08T07:07:27;98454.28;;;20.63
84354;BMP280;74538;43.522;1.516;2024-03-08T07:09:53;98456.00;;;20.66
84354;BMP280;74538;43.522;1.516;2024-03-08T07:12:18;98464.53;;;20.70
84354;BMP280;74538;43.522;1.516;2024-03-08T07:14:46;98470.66;;;20.76
84354;BMP280;74538;43.522;1.516;2024-03-08T07:17:12;98451.78;;;20.82
84354;BMP280;74538;43.522;1.516;2024-03-08T07:19:38;98459.84;;;20.87
84354;BMP280;74538;43.522;1.516;2024-03-08T07:22:04;98467.19;;;20.92
84354;BMP280;74538;43.522;1.516;2024-03-08T07:24:34;98469.84;;;20.98
84354;BMP280;74538;43.522;1.516;2024-03-08T07:27:06;98468.63;;;21.04
84354;BMP280;74538;43.522;1.516;2024-03-08T07:29:32;98465.16;;;21.09
84354;BMP280;74538;43.522;1.516;2024-03-08T07:31:59;98470.03;;;21.16
84354;BMP280;74538;43.522;1.516;2024-03-08T07:34:49;98458.72;;;21.24
84354;BMP280;74538;43.522;1.516;2024-03-08T07:37:16;98444.50;;;21.29
84354;BMP280;74538;43.522;1.516;2024-03-08T07:39:42;98455.75;;;21.33
84354;BMP280;74538;43.522;1.516;2024-03-08T07:42:09;98444.44;;;21.40
84354;BMP280;74538;43.522;1.516;2024-03-08T07:44:36;98446.38;;;21.45
84354;BMP280;74538;43.522;1.516;2024-03-08T07:47:01;98444.38;;;21.51
84354;BMP280;74538;43.522;1.516;2024-03-08T07:49:29;98427.47;;;21.56
84354;BMP280;74538;43.522;1.516;2024-03-08T07:51:58;98422.03;;;21.62
84354;BMP280;74538;43.522;1.516;2024-03-08T07:54:24;98412.44;;;21.66
84354;BMP280;74538;43.522;1.516;2024-03-08T07:56:51;98399.66;;;21.72
84354;BMP280;74538;43.522;1.516;2024-03-08T07:59:18;98384.66;;;21.77
84354;BMP280;74538;43.522;1.516;2024-03-08T08:01:44;98383.38;;;21.83
84354;BMP280;74538;43.522;1.516;2024-03-08T08:04:11;98378.44;;;21.87
84354;BMP280;74538;43.522;1.516;2024-03-08T08:06:40;98392.63;;;21.93
84354;BMP280;74538;43.522;1.516;2024-03-08T08:09:09;98375.63;;;21.99
84354;BMP280;74538;43.522;1.516;2024-03-08T08:11:43;98380.47;;;22.06
84354;BMP280;74538;43.522;1.516;2024-03-08T08:14:11;98367.69;;;22.12
84354;BMP280;74538;43.522;1.516;2024-03-08T08:16:37;98354.63;;;22.16
84354;BMP280;74538;43.522;1.516;2024-03-08T08:19:03;98362.16;;;22.23
84354;BMP280;74538;43.522;1.516;2024-03-08T08:21:35;98355.97;;;22.28
84354;BMP280;74538;43.522;1.516;2024-03-08T08:24:04;98353.94;;;22.34
84354;BMP280;74538;43.522;1.516;2024-03-08T08:26:30;98352.63;;;22.41
84354;BMP280;74538;43.522;1.516;2024-03-08T08:28:56;98351.34;;;22.47
84354;BMP280;74538;43.522;1.516;2024-03-08T08:31:21;98346.38;;;22.51
84354;BMP280;74538;43.522;1.516;2024-03-08T08:33:47;98349.75;;;22.57
84354;BMP280;74538;43.522;1.516;2024-03-08T08:36:17;98360.50;;;22.63
84354;BMP280;74538;43.522;1.516;2024-03-08T08:38:43;98348.13;;;22.67
84354;BMP280;74538;43.522;1.516;2024-03-08T08:41:10;98351.50;;;22.74
84354;BMP280;74538;43.522;1.516;2024-03-08T08:43:36;98350.00;;;22.78
84354;BMP280;74538;43.522;1.516;2024-03-08T08:46:02;98356.03;;;22.84
84354;BMP280;74538;43.522;1.516;2024-03-08T08:48:28;98331.66;;;22.90
84354;BMP280;74538;43.522;1.516;2024-03-08T08:50:56;98328.13;;;22.95
84354;BMP280;74538;43.522;1.516;2024-03-08T08:53:22;98335.44;;;23.00
84354;BMP280;74538;43.522;1.516;2024-03-08T08:55:47;98334.63;;;23.05
84354;BMP280;74538;43.522;1.516;2024-03-08T08:58:13;98335.28;;;23.11
84354;BMP280;74538;43.522;1.516;2024-03-08T09:00:39;98336.44;;;23.16
84354;BMP280;74538;43.522;1.516;2024-03-08T09:03:05;98345.69;;;23.20
84354;BMP280;74538;43.522;1.516;2024-03-08T09:05:32;98362.56;;;23.26
84354;BMP280;74538;43.522;1.516;2024-03-08T09:07:59;98364.44;;;23.31
84354;BMP280;74538;43.522;1.516;2024-03-08T09:10:26;98358.00;;;23.34
84354;BMP280;74538;43.522;1.516;2024-03-08T09:15:18;98378.75;;;23.45
84354;BMP280;74538;43.522;1.516;2024-03-08T09:17:46;98378.44;;;23.48
84354;BMP280;74538;43.522;1.516;2024-03-08T09:20:13;98374.91;;;23.54
84354;BMP280;74538;43.522;1.516;2024-03-08T09:22:43;98378.00;;;23.58
84354;BMP280;74538;43.522;1.516;2024-03-08T09:25:09;98379.69;;;23.61
84354;BMP280;74538;43.522;1.516;2024-03-08T09:27:35;98370.34;;;23.62
84354;BMP280;74538;43.522;1.516;2024-03-08T09:30:01;98382.63;;;23.63
84354;BMP280;74538;43.522;1.516;2024-03-08T09:32:26;98382.63;;;23.63
84354;BMP280;74538;43.522;1.516;2024-03-08T09:34:52;98378.69;;;23.64
84354;BMP280;74538;43.522;1.516;2024-03-08T09:37:18;98382.63;;;23.63
84354;BMP280;74538;43.522;1.516;2024-03-08T09:39:44;98379.41;;;23.64
84354;BMP280;74538;43.522;1.516;2024-03-08T09:42:10;98387.50;;;23.64
84354;BMP280;74538;43.522;1.516;2024-03-08T09:44:44;98390.22;;;23.64
84354;BMP280;74538;43.522;1.516;2024-03-08T09:47:14;98394.16;;;23.63
84354;BMP280;74538;43.522;1.516;2024-03-08T09:49:40;98415.06;;;23.63
84354;BMP280;74538;43.522;1.516;2024-03-08T09:52:07;98425.88;;;23.63
84354;BMP280;74538;43.522;1.516;2024-03-08T09:54:33;98421.72;;;23.62
84354;BMP280;74538;43.522;1.516;2024-03-08T09:56:59;98432.34;;;23.60
84354;BMP280;74538;43.522;1.516;2024-03-08T09:59:25;98430.84;;;23.59
84354;BMP280;74538;43.522;1.516;2024-03-08T10:01:54;98425.94;;;23.57
84354;BMP280;74538;43.522;1.516;2024-03-08T10:04:24;98416.91;;;23.55
84354;BMP280;74538;43.522;1.516;2024-03-08T10:06:51;98421.38;;;23.52
84354;BMP280;74538;43.522;1.516;2024-03-08T10:09:17;98413.03;;;23.50
84354;BMP280;74538;43.522;1.516;2024-03-08T10:11:44;98387.03;;;23.47
84354;BMP280;74538;43.522;1.516;2024-03-08T10:14:10;98354.91;;;23.43
84354;BMP280;74538;43.522;1.516;2024-03-08T10:16:38;98312.69;;;23.40
84354;BMP280;74538;43.522;1.516;2024-03-08T10:19:04;98275.91;;;23.37
84354;BMP280;74538;43.522;1.516;2024-03-08T10:21:32;98239.09;;;23.34
84354;BMP280;74538;43.522;1.516;2024-03-08T10:24:02;98181.41;;;23.32
84354;BMP280;74538;43.522;1.516;2024-03-08T10:26:28;98146.09;;;23.30
84354;BMP280;74538;43.522;1.516;2024-03-08T10:28:54;98155.97;;;23.27
84354;BMP280;74538;43.522;1.516;2024-03-08T10:31:20;98205.63;;;23.24
84354;BMP280;74538;43.522;1.516;2024-03-08T10:33:46;98227.03;;;23.22
84354;BMP280;74538;43.522;1.516;2024-03-08T10:36:13;98218.69;;;23.20
84354;BMP280;74538;43.522;1.516;2024-03-08T10:38:42;98224.41;;;23.17
84354;BMP280;74538;43.522;1.516;2024-03-08T10:41:11;98215.38;;;23.14
84354;BMP280;74538;43.522;1.516;2024-03-08T10:45:10;98233.34;;;23.12
84354;BMP280;74538;43.522;1.516;2024-03-08T10:49:38;98274.81;;;23.14
84354;BMP280;74538;43.522;1.516;2024-03-08T10:52:05;98293.97;;;23.16
84354;BMP280;74538;43.522;1.516;2024-03-08T10:54:34;98323.88;;;23.18
84354;BMP280;74538;43.522;1.516;2024-03-08T10:57:05;98342.50;;;23.22
84354;BMP280;74538;43.522;1.516;2024-03-08T10:59:32;98352.97;;;23.25
84354;BMP280;74538;43.522;1.516;2024-03-08T11:01:59;98360.28;;;23.30
84354;BMP280;74538;43.522;1.516;2024-03-08T11:04:25;98368.81;;;23.34
84354;BMP280;74538;43.522;1.516;2024-03-08T11:06:52;98363.84;;;23.38
84354;BMP280;74538;43.522;1.516;2024-03-08T11:09:30;98354.91;;;23.43
84354;BMP280;74538;43.522;1.516;2024-03-08T11:12:18;98354.91;;;23.43
84354;BMP280;74538;43.522;1.516;2024-03-08T11:14:45;98352.31;;;23.51
84354;BMP280;74538;43.522;1.516;2024-03-08T11:17:15;98365.53;;;23.55
84354;BMP280;74538;43.522;1.516;2024-03-08T11:19:49;98370.16;;;23.60
84354;BMP280;74538;43.522;1.516;2024-03-08T11:22:21;98383.34;;;23.63
84354;BMP280;74538;43.522;1.516;2024-03-08T11:24:52;98384.53;;;23.68
84354;BMP280;74538;43.522;1.516;2024-03-08T11:27:18;98386.38;;;23.73
84354;BMP280;74538;43.522;1.516;2024-03-08T11:29:59;98382.13;;;23.77
84354;BMP280;74538;43.522;1.516;2024-03-08T11:32:28;98381.06;;;23.80
84354;BMP280;74538;43.522;1.516;2024-03-08T11:34:54;98386.94;;;23.84
84354;BMP280;74538;43.522;1.516;2024-03-08T11:37:21;98392.00;;;23.88
84354;BMP280;74538;43.522;1.516;2024-03-08T11:39:52;98382.38;;;23.93
84354;BMP280;74538;43.522;1.516;2024-03-08T11:42:18;98390.16;;;23.96
84354;BMP280;74538;43.522;1.516;2024-03-08T11:44:48;98386.44;;;23.99
84354;BMP280;74538;43.522;1.516;2024-03-08T11:47:15;98386.31;;;24.05
84354;BMP280;74538;43.522;1.516;2024-03-08T11:49:41;98383.28;;;24.08
84354;BMP280;74538;43.522;1.516;2024-03-08T11:52:12;98386.94;;;24.11
84354;BMP280;74538;43.522;1.516;2024-03-08T11:54:39;98390.78;;;24.15
84354;BMP280;74538;43.522;1.516;2024-03-08T11:57:05;98385.81;;;24.19
84354;BMP280;74538;43.522;1.516;2024-03-08T11:59:31;98389.47;;;24.22
84354;BMP280;74538;43.522;1.516;2024-03-08T12:02:07;98392.53;;;24.26
84354;BMP280;74538;43.522;1.516;2024-03-08T12:04:36;98397.66;;;24.29
84354;BMP280;74538;43.522;1.516;2024-03-08T12:07:02;98380.38;;;24.33
84354;BMP280;74538;43.522;1.516;2024-03-08T12:09:34;98378.81;;;24.37
84354;BMP280;74538;43.522;1.516;2024-03-08T12:12:02;98378.47;;;24.41
84354;BMP280;74538;43.522;1.516;2024-03-08T12:14:30;98369.31;;;24.44
84354;BMP280;74538;43.522;1.516;2024-03-08T12:16:57;98369.00;;;24.47
84354;BMP280;74538;43.522;1.516;2024-03-08T12:19:23;98351.72;;;24.50
84354;BMP280;74538;43.522;1.516;2024-03-08T12:21:48;98340.56;;;24.54
84354;BMP280;74538;43.522;1.516;2024-03-08T12:24:16;98356.50;;;24.57
84354;BMP280;74538;43.522;1.516;2024-03-08T12:26:45;98354.72;;;24.60
84354;BMP280;74538;43.522;1.516;2024-03-08T12:29:21;98359.59;;;24.61
84354;BMP280;74538;43.522;1.516;2024-03-08T12:32:02;98357.63;;;24.62
84354;BMP280;74538;43.522;1.516;2024-03-08T12:34:30;98359.06;;;24.63
84354;BMP280;74538;43.522;1.516;2024-03-08T12:36:57;98346.78;;;24.62
84354;BMP280;74538;43.522;1.516;2024-03-08T12:39:23;98352.19;;;24.62
84354;BMP280;74538;43.522;1.516;2024-03-08T12:41:55;98353.66;;;24.63
84354;BMP280;74538;43.522;1.516;2024-03-08T12:44:22;98350.22;;;24.62
84354;BMP280;74538;43.522;1.516;2024-03-08T12:46:48;98352.19;;;24.62
84354;BMP280;74538;43.522;1.516;2024-03-08T12:49:14;98353.44;;;24.61
84354;BMP280;74538;43.522;1.516;2024-03-08T12:51:44;98345.31;;;24.61
84354;BMP280;74538;43.522;1.516;2024-03-08T12:54:09;98343.16;;;24.59
84354;BMP280;74538;43.522;1.516;2024-03-08T12:56:36;98337.03;;;24.59
84354;BMP280;74538;43.522;1.516;2024-03-08T12:59:04;98335.56;;;24.58
84354;BMP280;74538;43.522;1.516;2024-03-08T13:01:30;98330.13;;;24.58
84354;BMP280;74538;43.522;1.516;2024-03-08T13:03:58;98321.28;;;24.57
84354;BMP280;74538;43.522;1.516;2024-03-08T13:06:31;98322.53;;;24.56
84354;BMP280;74538;43.522;1.516;2024-03-08T13:08:57;98329.19;;;24.55
84354;BMP280;74538;43.522;1.516;2024-03-08T13:11:31;98329.72;;;24.54
84354;BMP280;74538;43.522;1.516;2024-03-08T13:14:04;98329.72;;;24.54
84354;BMP280;74538;43.522;1.516;2024-03-08T13:16:35;98320.16;;;24.53
84354;BMP280;74538;43.522;1.516;2024-03-08T13:19:01;98322.16;;;24.52
84354;BMP280;74538;43.522;1.516;2024-03-08T13:21:26;98311.84;;;24.51
84354;BMP280;74538;43.522;1.516;2024-03-08T13:23:52;98309.84;;;24.51
84354;BMP280;74538;43.522;1.516;2024-03-08T13:26:18;98304.44;;;24.51
84354;BMP280;74538;43.522;1.516;2024-03-08T13:28:50;98307.69;;;24.50
84354;BMP280;74538;43.522;1.516;2024-03-08T13:31:19;98307.69;;;24.50
84354;BMP280;74538;43.522;1.516;2024-03-08T13:33:45;98298.59;;;24.47
84354;BMP280;74538;43.522;1.516;2024-03-08T13:36:13;98299.88;;;24.46
84354;BMP280;74538;43.522;1.516;2024-03-08T13:38:42;98289.56;;;24.45
84354;BMP280;74538;43.522;1.516;2024-03-08T13:41:09;98285.41;;;24.44
84354;BMP280;74538;43.522;1.516;2024-03-08T13:43:36;98281.25;;;24.43
84354;BMP280;74538;43.522;1.516;2024-03-08T13:46:02;98267.50;;;24.41
84354;BMP280;74538;43.522;1.516;2024-03-08T13:48:28;98271.47;;;24.40
84354;BMP280;74538;43.522;1.516;2024-03-08T13:50:54;98270.00;;;24.39
84354;BMP280;74538;43.522;1.516;2024-03-08T13:53:22;98260.25;;;24.36
84354;BMP280;74538;43.522;1.516;2024-03-08T13:55:49;98260.00;;;24.34
84354;BMP280;74538;43.522;1.516;2024-03-08T13:58:16;98260.56;;;24.32
84354;BMP280;74538;43.522;1.516;2024-03-08T14:00:41;98261.06;;;24.31
84354;BMP280;74538;43.522;1.516;2024-03-08T14:03:10;98260.91;;;24.28
84354;BMP280;74538;43.522;1.516;2024-03-08T14:05:41;98255.28;;;24.26
84354;BMP280;74538;43.522;1.516;2024-03-08T14:08:10;98270.56;;;24.24
84354;BMP280;74538;43.522;1.516;2024-03-08T14:10:37;98254.66;;;24.20
84354;BMP280;74538;43.522;1.516;2024-03-08T14:13:04;98264.03;;;24.19
84354;BMP280;74538;43.522;1.516;2024-03-08T14:15:34;98259.66;;;24.16